CSN5123 ZSZS-ZGSZ
Flight info
| Callsign | CSN5123 |
|---|---|
| Flight time | N/A |
| Altitude | 36100 |
| Route | HSN W67 BK W58 SHZ B221 LJG A470 BEBEM R200 GUBLO |
| Aircraft | E190/M-SDE3GILORVW/S |
Departure
| Time | N/A |
|---|---|
| Airport | Zhoushan Putuoshan International Airport (ZSZS) |
Arrival
| Time | 2026-04-22 04:18 |
|---|---|
| Airport | Shenzhen Bao'an International Airport (ZGSZ) |
| Time | Latitude | Longitude | Altitude | Speed | Heading |
|---|---|---|---|---|---|
| 2026-04-22 04:10 | 22.87548 | 113.79964 | 7921 ft | 276 kts | 306° |
| 2026-04-22 04:10 | 22.88805 | 113.78385 | 7057 ft | 274 kts | 307° |
| 2026-04-22 04:10 | 22.89934 | 113.76786 | 6231 ft | 266 kts | 288° |
| 2026-04-22 04:10 | 22.90102 | 113.74947 | 6059 ft | 227 kts | 256° |
| 2026-04-22 04:11 | 22.89763 | 113.73431 | 6139 ft | 192 kts | 252° |
| 2026-04-22 04:11 | 22.89411 | 113.72098 | 6000 ft | 178 kts | 250° |
| 2026-04-22 04:11 | 22.89044 | 113.70811 | 5599 ft | 182 kts | 250° |
| 2026-04-22 04:11 | 22.88617 | 113.69499 | 5114 ft | 187 kts | 238° |
| 2026-04-22 04:12 | 22.87591 | 113.68685 | 4598 ft | 193 kts | 193° |
| 2026-04-22 04:12 | 22.86257 | 113.68917 | 4176 ft | 199 kts | 160° |
| 2026-04-22 04:12 | 22.85007 | 113.69577 | 3750 ft | 202 kts | 157° |
| 2026-04-22 04:12 | 22.83735 | 113.70264 | 3311 ft | 204 kts | 157° |
| 2026-04-22 04:13 | 22.82499 | 113.70939 | 3192 ft | 190 kts | 156° |
| 2026-04-22 04:13 | 22.81370 | 113.71557 | 3170 ft | 172 kts | 157° |
| 2026-04-22 04:13 | 22.80371 | 113.72103 | 3156 ft | 151 kts | 158° |
| 2026-04-22 04:13 | 22.79473 | 113.72593 | 2975 ft | 134 kts | 158° |
| 2026-04-22 04:14 | 22.78657 | 113.73037 | 2795 ft | 129 kts | 158° |
| 2026-04-22 04:14 | 22.77843 | 113.73480 | 2650 ft | 130 kts | 158° |
| 2026-04-22 04:14 | 22.77023 | 113.73927 | 2495 ft | 132 kts | 157° |
| 2026-04-22 04:14 | 22.76198 | 113.74377 | 2328 ft | 132 kts | 157° |
| 2026-04-22 04:15 | 22.75387 | 113.74820 | 2160 ft | 132 kts | 157° |
| 2026-04-22 04:15 | 22.74563 | 113.75270 | 1986 ft | 130 kts | 157° |
| 2026-04-22 04:15 | 22.73752 | 113.75712 | 1813 ft | 130 kts | 157° |
| 2026-04-22 04:15 | 22.72945 | 113.76153 | 1646 ft | 129 kts | 157° |
| 2026-04-22 04:16 | 22.72144 | 113.76589 | 1478 ft | 128 kts | 157° |
| 2026-04-22 04:16 | 22.70545 | 113.77462 | 1147 ft | 126 kts | 156° |
| 2026-04-22 04:16 | 22.69751 | 113.77895 | 981 ft | 125 kts | 156° |
| 2026-04-22 04:17 | 22.68974 | 113.78320 | 806 ft | 125 kts | 155° |
| 2026-04-22 04:17 | 22.68202 | 113.78767 | 658 ft | 125 kts | 156° |
| 2026-04-22 04:17 | 22.67410 | 113.79182 | 490 ft | 123 kts | 157° |
| 2026-04-22 04:17 | 22.66635 | 113.79588 | 348 ft | 124 kts | 156° |
| 2026-04-22 04:18 | 22.65870 | 113.80005 | 195 ft | 122 kts | 156° |
| 2026-04-22 04:18 | 22.65106 | 113.80426 | 40 ft | 120 kts | 156° |
| 2026-04-22 04:18 | 22.64444 | 113.80772 | 21 ft | 83 kts | 148° |
| 2026-04-22 04:18 | 22.64068 | 113.80984 | 21 ft | 41 kts | 153° |
| 2026-04-22 04:19 | 22.63856 | 113.81055 | 21 ft | 27 kts | 176° |
| 2026-04-22 04:19 | 22.63706 | 113.81053 | 21 ft | 20 kts | 182° |
| 2026-04-22 04:19 | 22.63650 | 113.81049 | 21 ft | 6 kts | 185° |
| 2026-04-22 04:19 | 22.63587 | 113.81049 | 20 ft | 10 kts | 173° |
| 2026-04-22 04:20 | 22.63514 | 113.81070 | 21 ft | 11 kts | 154° |
| 2026-04-22 04:20 | 22.63431 | 113.81116 | 21 ft | 13 kts | 165° |
| 2026-04-22 04:20 | 22.63351 | 113.81072 | 21 ft | 13 kts | 188° |
| 2026-04-22 04:20 | 22.63261 | 113.81104 | 21 ft | 13 kts | 155° |
| 2026-04-22 04:21 | 22.63171 | 113.81151 | 21 ft | 14 kts | 165° |
| 2026-04-22 04:21 | 22.63112 | 113.81089 | 21 ft | 13 kts | 262° |
| 2026-04-22 04:21 | 22.63102 | 113.81020 | 21 ft | 3 kts | 252° |
| 2026-04-22 04:21 | 22.63082 | 113.81003 | 21 ft | 3 kts | 192° |
| 2026-04-22 04:22 | 22.63056 | 113.81003 | 20 ft | 3 kts | 175° |
| 2026-04-22 04:22 | 22.63044 | 113.81004 | 21 ft | 1 kts | 174° |
| 2026-04-22 04:22 | 22.63035 | 113.81005 | 20 ft | 1 kts | 173° |
| 2026-04-22 04:22 | 22.63031 | 113.81005 | 20 ft | 0 kts | 173° |